Time;durP1;ratioP1;P1;durP2;ratioP2;P2;SDS_P1;SDS_P2;PMS_P1;PMS_P2;Temp;Humidity;BMP_temperature;BMP_pressure;BME280_temperature;BME280_humidity;BME280_pressure;Samples;Min_cycle;Max_cycle;Signal;HPM_P1;HPM_P2
2021/12/07 00:01:59;;;;;;;11.38;7.70;;;1.60;99.90;;;;;;1961698;72;21033;-79
2021/12/07 00:04:25;;;;;;;13.43;7.78;;;1.60;99.90;;;;;;1964966;72;21065;-80
2021/12/07 00:06:51;;;;;;;12.95;7.67;;;1.50;99.90;;;;;;1961710;72;21111;-79
2021/12/07 00:09:17;;;;;;;10.08;6.70;;;1.60;99.90;;;;;;1972419;72;21142;-79
2021/12/07 00:11:44;;;;;;;9.95;6.45;;;1.70;99.90;;;;;;1954729;72;21065;-80
2021/12/07 00:14:14;;;;;;;9.13;6.58;;;1.60;99.90;;;;;;1958015;72;21239;-80
2021/12/07 00:16:40;;;;;;;10.48;5.97;;;1.60;99.90;;;;;;1959150;72;21167;-81
2021/12/07 00:19:06;;;;;;;9.58;5.47;;;1.60;99.90;;;;;;1957598;72;21182;-80
2021/12/07 00:21:32;;;;;;;9.23;6.75;;;1.60;99.90;;;;;;1951732;72;21068;-82
2021/12/07 00:23:59;;;;;;;10.88;6.20;;;1.60;99.90;;;;;;1968116;72;21057;-79
2021/12/07 00:26:25;;;;;;;10.93;7.20;;;1.60;99.90;;;;;;1963945;72;21149;-80
2021/12/07 00:28:51;;;;;;;9.05;5.62;;;1.70;99.90;;;;;;1956980;72;21029;-79
2021/12/07 00:31:26;;;;;;;6.78;5.47;;;1.80;99.90;;;;;;1961230;72;21068;-80
2021/12/07 00:33:54;;;;;;;9.03;6.62;;;1.90;99.90;;;;;;1962614;71;21146;-81
2021/12/07 00:36:13;;;;;;;7.78;5.70;;;1.80;99.90;;;;;;1969739;71;21093;-81
2021/12/07 00:38:39;;;;;;;9.93;5.92;;;1.70;99.90;;;;;;1969706;72;21076;-80
2021/12/07 00:41:05;;;;;;;14.18;7.10;;;1.80;99.90;;;;;;1955450;72;21210;-80
2021/12/07 00:43:33;;;;;;;8.33;6.72;;;1.70;99.90;;;;;;1962002;72;21085;-82
2021/12/07 00:46:00;;;;;;;10.70;7.12;;;1.80;99.90;;;;;;1955422;72;21064;-82
2021/12/07 00:48:27;;;;;;;8.80;6.45;;;1.80;99.90;;;;;;1955424;72;21068;-80
2021/12/07 00:50:54;;;;;;;8.90;6.42;;;1.70;99.90;;;;;;1951782;72;21072;-82
2021/12/07 00:53:20;;;;;;;14.45;6.55;;;1.70;99.90;;;;;;1951653;72;21107;-80
2021/12/07 00:55:47;;;;;;;9.45;7.17;;;1.70;99.90;;;;;;1971291;72;21152;-79
2021/12/07 00:58:17;;;;;;;14.70;7.55;;;1.70;99.90;;;;;;1958213;72;21107;-81
2021/12/07 01:00:40;;;;;;;11.78;6.83;;;1.70;99.90;;;;;;1959596;71;21516;-80
2021/12/07 01:03:07;;;;;;;10.43;6.90;;;1.60;99.90;;;;;;1961979;72;21484;-80
2021/12/07 01:05:35;;;;;;;13.90;7.55;;;1.60;99.90;;;;;;1964821;72;21060;-81
2021/12/07 01:26:55;;;;;;;9.30;6.22;;;1.90;99.90;;;;;;1956267;72;21142;-81
2021/12/07 01:29:24;;;;;;;9.48;5.75;;;1.90;99.90;;;;;;1966025;72;21161;-81
2021/12/07 01:34:45;;;;;;;6.12;4.83;;;1.90;99.90;;;;;;1964084;72;21244;-80
2021/12/07 01:45:23;;;;;;;3.52;3.10;;;2.30;99.90;;;;;;1957100;72;21138;-81
2021/12/07 02:00:51;;;;;;;3.20;2.90;;;2.50;99.90;;;;;;1951103;72;21072;-80
2021/12/07 02:03:18;;;;;;;3.20;2.90;;;2.60;99.90;;;;;;1965210;72;21114;-80
2021/12/07 02:05:44;;;;;;;3.62;3.05;;;2.60;99.90;;;;;;1967331;72;21141;-80
2021/12/07 02:08:10;;;;;;;13.28;3.00;;;2.60;99.90;;;;;;1960143;72;21126;-81
2021/12/07 02:10:36;;;;;;;2.60;2.40;;;2.60;99.90;;;;;;1969692;72;21056;-80
2021/12/07 02:13:07;;;;;;;3.42;2.65;;;2.60;99.90;;;;;;1961402;72;21501;-79
2021/12/07 02:15:30;;;;;;;3.85;3.00;;;2.60;99.90;;;;;;1956931;71;21079;-80
2021/12/07 02:17:56;;;;;;;4.15;2.90;;;2.60;99.90;;;;;;1951635;72;21080;-79
2021/12/07 02:20:22;;;;;;;4.17;2.92;;;2.60;99.90;;;;;;1966649;72;21045;-80
2021/12/07 02:22:48;;;;;;;3.27;2.87;;;2.60;99.90;;;;;;1970571;72;21484;-81
2021/12/07 02:25:14;;;;;;;3.10;2.90;;;2.70;99.90;;;;;;1961486;72;21475;-81
2021/12/07 02:27:41;;;;;;;3.77;3.02;;;2.70;99.90;;;;;;1963023;72;21473;-80
2021/12/07 02:30:07;;;;;;;4.70;2.98;;;2.80;99.90;;;;;;1959641;72;21485;-79
2021/12/07 02:32:33;;;;;;;6.05;2.83;;;2.70;99.90;;;;;;1960185;72;21061;-78
2021/12/07 02:35:00;;;;;;;3.17;2.55;;;2.70;99.90;;;;;;1965994;72;21033;-80
2021/12/07 02:37:26;;;;;;;2.42;2.22;;;2.70;99.90;;;;;;1957816;72;21122;-81
2021/12/07 02:39:52;;;;;;;3.47;2.60;;;2.70;99.90;;;;;;1957905;72;21078;-81
2021/12/07 02:42:18;;;;;;;6.03;3.40;;;2.60;99.90;;;;;;1964616;72;21489;-84
2021/12/07 02:44:44;;;;;;;3.27;2.52;;;2.50;99.90;;;;;;1972489;72;21445;-83
2021/12/07 02:47:10;;;;;;;4.20;2.45;;;2.60;99.90;;;;;;1964677;72;21481;-82
2021/12/07 02:49:37;;;;;;;3.30;2.65;;;2.60;99.90;;;;;;1972082;72;21138;-84
2021/12/07 02:52:03;;;;;;;3.02;2.83;;;2.60;99.90;;;;;;1959313;72;21169;-83
2021/12/07 02:54:29;;;;;;;3.77;2.80;;;2.70;99.90;;;;;;1968776;72;21056;-83
2021/12/07 02:56:55;;;;;;;3.05;2.75;;;2.70;99.90;;;;;;1954562;72;21150;-83
2021/12/07 02:59:22;;;;;;;3.33;2.80;;;2.60;99.90;;;;;;1963761;72;21154;-84
2021/12/07 03:01:58;;;;;;;4.53;3.40;;;2.70;99.90;;;;;;1955510;72;21130;-83
2021/12/07 03:04:18;;;;;;;3.55;2.52;;;2.70;99.90;;;;;;1958591;71;21223;-85
2021/12/07 03:07:02;;;;;;;3.12;2.70;;;2.80;99.90;;;;;;1962662;71;21346;-83
2021/12/07 03:28:20;;;;;;;2.60;2.40;;;2.80;99.90;;;;;;1970066;70;21425;-84
2021/12/07 03:30:46;;;;;;;7.08;2.58;;;2.90;99.90;;;;;;1966384;72;21131;-82
2021/12/07 03:33:12;;;;;;;3.27;2.42;;;2.90;99.90;;;;;;1953761;72;21566;-82
2021/12/07 03:35:38;;;;;;;4.40;2.92;;;2.90;99.90;;;;;;1965666;72;21057;-84
2021/12/07 03:38:04;;;;;;;3.17;2.45;;;2.90;99.90;;;;;;1956482;72;21060;-81
2021/12/07 03:40:31;;;;;;;2.40;2.20;;;3.00;99.90;;;;;;1965376;72;21076;-84
2021/12/07 03:42:57;;;;;;;2.80;2.60;;;3.00;99.90;;;;;;1958454;72;21191;-85
2021/12/07 03:45:24;;;;;;;2.72;2.52;;;3.00;99.90;;;;;;1969615;72;21037;-84
2021/12/07 03:47:50;;;;;;;2.47;2.27;;;3.00;99.90;;;;;;1952856;72;21406;-83
2021/12/07 03:50:16;;;;;;;2.50;2.30;;;2.90;99.90;;;;;;1968278;72;21562;-83
2021/12/07 03:52:42;;;;;;;3.58;2.33;;;2.90;99.90;;;;;;1966365;72;21628;-81
2021/12/07 03:55:08;;;;;;;3.75;3.02;;;2.80;99.90;;;;;;1972628;72;21072;-81
2021/12/07 03:57:34;;;;;;;2.10;2.00;;;2.80;99.90;;;;;;1955328;72;21060;-81
2021/12/07 04:00:01;;;;;;;3.67;2.50;;;2.70;99.90;;;;;;1967730;72;21080;-82
2021/12/07 04:02:27;;;;;;;2.62;2.42;;;2.80;99.90;;;;;;1973177;72;21123;-83
2021/12/07 04:04:59;;;;;;;2.08;1.92;;;2.80;99.90;;;;;;1953961;72;21025;-83
2021/12/07 04:07:21;;;;;;;2.70;2.50;;;2.80;99.90;;;;;;1960639;71;21128;-81
2021/12/07 04:09:47;;;;;;;2.20;2.00;;;2.80;99.90;;;;;;1972185;72;21060;-80
2021/12/07 04:12:13;;;;;;;2.10;1.90;;;2.80;99.90;;;;;;1967298;72;21149;-81
2021/12/07 04:14:39;;;;;;;2.08;1.87;;;2.80;99.90;;;;;;1963149;72;21142;-80
2021/12/07 04:17:05;;;;;;;6.53;2.62;;;2.90;99.90;;;;;;1963809;72;21081;-80
2021/12/07 04:19:31;;;;;;;3.83;1.95;;;3.00;99.90;;;;;;1968039;72;21216;-82
2021/12/07 04:21:57;;;;;;;2.22;1.87;;;3.00;99.90;;;;;;1954148;72;21038;-83
2021/12/07 04:24:27;;;;;;;2.52;2.12;;;3.00;99.90;;;;;;1961936;72;21602;-82
2021/12/07 04:26:51;;;;;;;2.10;1.90;;;3.10;99.90;;;;;;1957465;71;22464;-83
2021/12/07 04:29:17;;;;;;;1.57;1.47;;;3.10;99.90;;;;;;1964316;72;21119;-81
2021/12/07 04:31:44;;;;;;;2.00;1.52;;;3.10;99.90;;;;;;1954811;72;21210;-82
2021/12/07 04:34:10;;;;;;;2.08;1.60;;;3.00;99.90;;;;;;1971402;72;21072;-81
2021/12/07 04:36:36;;;;;;;2.92;1.80;;;3.10;99.90;;;;;;1946355;72;21547;-83
2021/12/07 04:39:02;;;;;;;1.55;1.45;;;3.20;99.90;;;;;;1960433;72;21527;-81
2021/12/07 04:41:32;;;;;;;4.37;2.30;;;3.20;99.90;;;;;;1970002;72;21460;-82
2021/12/07 04:43:56;;;;;;;1.95;1.50;;;3.10;99.90;;;;;;1965593;71;21064;-81
2021/12/07 04:46:32;;;;;;;1.85;1.67;;;3.20;99.90;;;;;;1946856;72;21072;-83
2021/12/07 04:49:29;;;;;;;5.17;1.80;;;3.20;99.90;;;;;;1952803;71;21104;-84
2021/12/07 04:59:36;;;;;;;1.77;1.40;;;3.20;99.90;;;;;;1964459;72;21152;-81
2021/12/07 05:02:02;;;;;;;2.22;1.42;;;3.20;99.90;;;;;;1964850;72;21077;-82
2021/12/07 05:04:32;;;;;;;5.08;1.75;;;3.20;99.90;;;;;;1954203;72;21060;-80
2021/12/07 05:07:07;;;;;;;3.25;1.40;;;3.30;99.90;;;;;;1958438;71;21175;-83
2021/12/07 05:12:44;;;;;;;2.75;1.55;;;3.10;99.90;;;;;;1965158;72;21152;-81
2021/12/07 05:14:25;;;;;;;2.80;1.72;;;3.10;99.90;;;;;;1962439;71;21185;-78
2021/12/07 05:16:57;;;;;;;1.30;1.20;;;3.30;99.90;;;;;;1971924;71;21497;-79
2021/12/07 05:25:07;;;;;;;1.47;1.37;;;3.20;99.90;;;;;;1966901;72;21152;-81
2021/12/07 05:38:14;;;;;;;2.47;1.40;;;3.20;99.90;;;;;;1949774;72;21061;-82
2021/12/07 05:40:40;;;;;;;1.40;1.30;;;3.10;99.90;;;;;;1962392;72;21157;-81
2021/12/07 05:43:06;;;;;;;1.50;1.40;;;3.10;99.90;;;;;;1951181;73;21068;-83
2021/12/07 05:45:33;;;;;;;2.12;1.60;;;3.10;99.90;;;;;;1951094;72;21530;-81
2021/12/07 05:47:59;;;;;;;1.75;1.65;;;3.00;99.90;;;;;;1966791;72;21141;-82
2021/12/07 05:50:25;;;;;;;3.27;1.57;;;3.10;99.90;;;;;;1959044;72;21033;-82
2021/12/07 05:52:51;;;;;;;4.03;2.00;;;3.00;99.90;;;;;;1956557;72;21181;-83
2021/12/07 05:55:17;;;;;;;1.62;1.10;;;3.00;99.90;;;;;;1966209;72;21064;-81
2021/12/07 05:57:43;;;;;;;1.65;1.02;;;3.00;99.90;;;;;;1952819;72;21149;-81
2021/12/07 06:00:09;;;;;;;2.20;1.10;;;3.00;99.90;;;;;;1956692;72;21161;-82
2021/12/07 06:02:35;;;;;;;7.97;1.10;;;3.00;99.90;;;;;;1965679;72;21080;-81
2021/12/07 06:05:02;;;;;;;4.35;1.20;;;3.00;99.90;;;;;;1954587;72;21233;-83
2021/12/07 06:07:28;;;;;;;1.85;1.20;;;3.10;99.90;;;;;;1964971;72;21607;-79
2021/12/07 06:09:54;;;;;;;0.68;0.68;;;3.10;99.90;;;;;;1964882;72;21573;-82
2021/12/07 06:12:20;;;;;;;0.75;0.70;;;3.10;99.90;;;;;;1967278;72;21582;-81
2021/12/07 06:14:46;;;;;;;0.80;0.80;;;3.20;99.90;;;;;;1962598;72;21556;-75
2021/12/07 06:17:12;;;;;;;4.33;0.90;;;3.30;99.90;;;;;;1953163;72;21061;-76
2021/12/07 06:19:38;;;;;;;1.52;0.93;;;3.30;99.90;;;;;;1955008;72;21052;-75
2021/12/07 06:22:05;;;;;;;3.75;0.82;;;3.40;99.90;;;;;;1960793;72;21064;-75
2021/12/07 06:24:31;;;;;;;1.85;1.00;;;3.40;99.90;;;;;;1953069;72;21158;-75
2021/12/07 06:26:58;;;;;;;2.90;1.45;;;3.40;99.90;;;;;;1954862;72;21076;-74
2021/12/07 06:29:24;;;;;;;1.65;1.07;;;3.40;99.90;;;;;;1959849;72;21060;-75
2021/12/07 06:31:50;;;;;;;1.60;1.00;;;3.40;99.90;;;;;;1967341;72;21068;-75
2021/12/07 06:34:16;;;;;;;2.60;1.25;;;3.30;99.90;;;;;;1971190;72;21173;-75
2021/12/07 06:36:42;;;;;;;2.20;1.20;;;3.20;99.90;;;;;;1967134;72;21164;-75
2021/12/07 06:39:08;;;;;;;1.67;1.10;;;3.20;99.90;;;;;;1968866;72;21195;-74
2021/12/07 06:41:35;;;;;;;1.27;0.95;;;3.20;99.90;;;;;;1962475;72;21479;-76
2021/12/07 06:44:01;;;;;;;4.20;1.55;;;3.20;99.90;;;;;;1961579;72;21037;-75
2021/12/07 06:46:27;;;;;;;3.07;1.60;;;3.10;99.90;;;;;;1963471;72;21041;-75
2021/12/07 06:48:53;;;;;;;1.40;1.10;;;3.10;99.90;;;;;;1964648;72;21060;-76
2021/12/07 06:51:19;;;;;;;3.95;1.35;;;3.20;99.90;;;;;;1959745;72;21060;-76
2021/12/07 06:53:45;;;;;;;2.95;1.20;;;3.20;99.90;;;;;;1963627;72;21129;-74
2021/12/07 06:56:11;;;;;;;2.47;1.20;;;3.30;99.90;;;;;;1962017;72;21138;-74
2021/12/07 06:58:38;;;;;;;7.37;1.30;;;3.30;99.90;;;;;;1961275;72;21061;-74
2021/12/07 07:01:05;;;;;;;1.42;1.10;;;3.40;99.90;;;;;;1951902;72;21058;-77
2021/12/07 07:03:31;;;;;;;3.42;1.10;;;3.50;99.90;;;;;;1960145;72;21061;-78
2021/12/07 07:05:57;;;;;;;5.00;1.40;;;3.50;99.90;;;;;;1963282;72;21037;-82
2021/12/07 07:08:24;;;;;;;21.55;1.15;;;3.50;99.90;;;;;;1960601;72;21056;-79
2021/12/07 07:10:50;;;;;;;2.58;1.17;;;3.40;99.90;;;;;;1958965;72;21041;-77
2021/12/07 07:13:16;;;;;;;2.30;1.07;;;3.50;99.90;;;;;;1962504;72;21076;-76
2021/12/07 07:15:42;;;;;;;1.85;1.37;;;3.50;99.90;;;;;;1957193;72;21166;-74
2021/12/07 07:18:08;;;;;;;5.03;1.30;;;3.70;99.90;;;;;;1955698;72;21186;-75
2021/12/07 07:20:34;;;;;;;2.77;1.15;;;3.70;99.90;;;;;;1962140;72;21069;-74
2021/12/07 07:23:00;;;;;;;2.95;1.55;;;3.60;99.90;;;;;;1957961;72;21076;-74
2021/12/07 07:25:26;;;;;;;3.27;1.50;;;3.60;99.90;;;;;;1969938;72;21149;-74
2021/12/07 07:27:53;;;;;;;1.77;1.25;;;3.70;99.90;;;;;;1957830;72;21433;-75
2021/12/07 07:30:19;;;;;;;3.45;1.27;;;3.70;99.90;;;;;;1960153;72;21469;-74
2021/12/07 07:32:45;;;;;;;2.70;1.22;;;3.70;99.90;;;;;;1968671;72;21559;-75
2021/12/07 07:35:11;;;;;;;4.55;1.70;;;3.70;99.90;;;;;;1969868;72;21064;-75
2021/12/07 07:37:37;;;;;;;3.75;1.75;;;3.60;99.90;;;;;;1962390;72;21142;-74
2021/12/07 07:40:03;;;;;;;4.65;1.57;;;3.50;99.90;;;;;;1956370;72;21127;-75
2021/12/07 07:42:29;;;;;;;2.58;1.10;;;3.50;99.90;;;;;;1950035;72;21203;-75
2021/12/07 07:44:55;;;;;;;7.92;1.37;;;3.30;99.90;;;;;;1962956;72;21126;-75
2021/12/07 07:47:21;;;;;;;2.90;1.42;;;3.40;99.90;;;;;;1955820;72;21089;-74
2021/12/07 07:49:48;;;;;;;17.25;1.65;;;3.50;99.90;;;;;;1952097;72;21053;-74
2021/12/07 07:52:14;;;;;;;2.77;1.50;;;3.50;99.90;;;;;;1961631;72;21137;-82
2021/12/07 07:54:40;;;;;;;3.55;1.35;;;3.50;99.90;;;;;;1960323;72;21060;-80
2021/12/07 07:57:06;;;;;;;7.97;3.25;;;3.40;99.90;;;;;;1948605;72;21281;-81
2021/12/07 07:59:32;;;;;;;4.50;2.70;;;3.40;99.90;;;;;;1953781;72;21150;-82
2021/12/07 08:01:58;;;;;;;1.57;1.40;;;3.40;99.90;;;;;;1968584;72;21508;-82
2021/12/07 08:04:24;;;;;;;2.60;1.57;;;3.40;99.90;;;;;;1970980;72;21410;-81
2021/12/07 08:06:50;;;;;;;1.82;1.45;;;3.40;99.90;;;;;;1965912;72;21477;-81
2021/12/07 08:09:17;;;;;;;3.12;1.50;;;3.50;99.90;;;;;;1963875;72;21068;-82
2021/12/07 08:11:43;;;;;;;5.33;1.85;;;3.60;99.90;;;;;;1968393;72;21060;-82
2021/12/07 08:14:09;;;;;;;5.28;1.35;;;3.60;99.90;;;;;;1960625;72;21079;-82
2021/12/07 08:16:35;;;;;;;3.47;1.40;;;3.70;99.90;;;;;;1953557;72;21068;-81
2021/12/07 08:19:01;;;;;;;4.78;2.25;;;3.60;99.90;;;;;;1972214;72;21092;-82
2021/12/07 08:21:27;;;;;;;3.95;1.47;;;3.60;99.90;;;;;;1953868;72;21260;-79
2021/12/07 08:23:54;;;;;;;5.25;2.12;;;3.60;99.90;;;;;;1963264;72;21071;-78
2021/12/07 08:26:20;;;;;;;6.55;1.85;;;3.70;99.90;;;;;;1952865;72;21064;-77
2021/12/07 08:28:46;;;;;;;5.85;1.47;;;3.80;99.90;;;;;;1956637;72;21122;-80
2021/12/07 08:31:12;;;;;;;2.40;1.30;;;3.90;99.90;;;;;;1960671;72;21068;-80
2021/12/07 08:33:38;;;;;;;2.95;1.50;;;3.80;99.90;;;;;;1964910;72;21056;-81
2021/12/07 08:36:04;;;;;;;3.15;1.35;;;3.80;99.90;;;;;;1960608;72;21060;-81
2021/12/07 08:38:30;;;;;;;2.72;1.20;;;3.90;99.90;;;;;;1961407;72;21068;-79
2021/12/07 08:40:56;;;;;;;3.83;2.12;;;4.00;99.90;;;;;;1951557;72;21546;-80
2021/12/07 08:43:23;;;;;;;5.40;2.37;;;4.10;99.90;;;;;;1956906;72;21068;-80
2021/12/07 08:45:49;;;;;;;5.97;1.82;;;4.10;99.90;;;;;;1964210;72;21145;-81
2021/12/07 08:48:44;;;;;;;6.55;2.00;;;4.00;99.90;;;;;;1968254;72;21130;-80
2021/12/07 08:50:44;;;;;;;4.50;1.82;;;4.10;99.90;;;;;;1958224;72;21074;-80
2021/12/07 08:53:12;;;;;;;2.25;1.65;;;3.90;99.90;;;;;;1949348;72;21495;-80
2021/12/07 09:01:06;;;;;;;2.08;1.30;;;3.90;99.90;;;;;;1958421;72;21469;-79
2021/12/07 09:03:32;;;;;;;3.05;1.50;;;4.10;99.90;;;;;;1953756;72;21104;-80
2021/12/07 09:05:59;;;;;;;3.85;1.52;;;4.10;99.90;;;;;;1965712;72;21068;-80
2021/12/07 09:08:25;;;;;;;5.53;1.50;;;3.90;99.90;;;;;;1968895;72;21130;-80
2021/12/07 09:10:51;;;;;;;3.08;1.27;;;3.90;99.90;;;;;;1962700;72;21033;-80
2021/12/07 09:13:17;;;;;;;3.90;1.72;;;4.20;99.90;;;;;;1954997;72;21072;-80
2021/12/07 09:15:43;;;;;;;4.47;1.75;;;4.40;99.90;;;;;;1959302;72;21260;-82
2021/12/07 09:18:09;;;;;;;5.05;1.50;;;4.50;99.90;;;;;;1969225;72;21076;-79
2021/12/07 09:20:35;;;;;;;2.65;1.47;;;4.60;99.90;;;;;;1961805;72;21209;-80
2021/12/07 09:23:01;;;;;;;5.12;1.57;;;4.60;99.90;;;;;;1964428;72;21073;-79
2021/12/07 09:25:28;;;;;;;3.12;1.85;;;4.80;99.90;;;;;;1964121;72;21441;-78
2021/12/07 09:27:54;;;;;;;5.67;1.80;;;4.60;99.90;;;;;;1975852;72;21508;-79
2021/12/07 09:30:20;;;;;;;4.67;1.80;;;4.70;99.90;;;;;;1942853;72;21557;-80
2021/12/07 09:32:46;;;;;;;6.83;2.20;;;4.70;99.90;;;;;;1959020;72;21477;-82
2021/12/07 09:35:12;;;;;;;3.83;1.80;;;4.80;99.90;;;;;;1954058;72;21033;-82
2021/12/07 09:37:38;;;;;;;6.30;1.87;;;5.00;99.90;;;;;;1956743;72;21184;-81
2021/12/07 09:40:04;;;;;;;5.55;1.90;;;5.00;99.90;;;;;;1962008;72;21068;-83
2021/12/07 09:42:30;;;;;;;6.97;2.22;;;5.00;99.90;;;;;;1962337;72;21610;-83
2021/12/07 09:44:57;;;;;;;4.58;1.75;;;5.30;99.90;;;;;;2004395;71;21133;-83
2021/12/07 09:47:23;;;;;;;4.83;1.72;;;5.40;99.90;;;;;;1962863;72;21200;-82
2021/12/07 09:49:49;;;;;;;3.10;1.67;;;5.60;99.90;;;;;;1973730;72;21033;-82
2021/12/07 09:52:15;;;;;;;3.22;1.65;;;5.50;99.90;;;;;;1962235;72;21056;-85
2021/12/07 09:54:41;;;;;;;3.83;1.50;;;5.80;99.90;;;;;;1965671;72;21208;-83
2021/12/07 09:57:07;;;;;;;5.78;1.60;;;6.20;99.90;;;;;;1970948;72;21068;-83
2021/12/07 09:59:33;;;;;;;7.50;2.20;;;6.40;99.90;;;;;;1966861;72;21076;-84
2021/12/07 10:02:00;;;;;;;8.40;2.83;;;6.60;99.90;;;;;;1957683;72;21154;-84
2021/12/07 10:04:27;;;;;;;4.37;1.45;;;6.90;99.90;;;;;;1968329;72;21163;-82
2021/12/07 10:06:53;;;;;;;11.53;1.77;;;7.10;99.90;;;;;;1959258;72;21526;-84
2021/12/07 10:09:20;;;;;;;3.83;1.42;;;7.10;99.90;;;;;;1956604;72;21069;-86
2021/12/07 10:11:46;;;;;;;7.67;1.47;;;7.50;99.90;;;;;;1973028;72;21125;-85
2021/12/07 10:14:12;;;;;;;5.58;1.55;;;7.40;99.90;;;;;;1966740;72;21073;-85
2021/12/07 10:16:38;;;;;;;7.28;1.60;;;7.30;99.90;;;;;;1961459;72;21064;-82
2021/12/07 10:19:04;;;;;;;5.33;1.22;;;7.30;99.90;;;;;;1963510;72;21122;-86
2021/12/07 10:21:37;;;;;;;4.20;1.87;;;6.90;99.90;;;;;;1962691;72;21179;-78
2021/12/07 10:24:01;;;;;;;3.50;1.27;;;6.50;99.90;;;;;;1963013;71;21097;-83
2021/12/07 10:26:28;;;;;;;4.12;1.27;;;6.40;99.90;;;;;;1963001;71;21493;-85
2021/12/07 10:28:53;;;;;;;3.17;1.45;;;6.10;99.90;;;;;;1955540;72;21102;-84
2021/12/07 10:31:22;;;;;;;3.00;0.90;;;5.90;99.90;;;;;;1958306;72;21263;-84
2021/12/07 10:33:47;;;;;;;3.72;1.40;;;5.90;99.90;;;;;;1953442;72;21223;-83
2021/12/07 10:36:16;;;;;;;5.80;1.60;;;5.90;99.90;;;;;;1958441;72;21193;-85
2021/12/07 10:38:41;;;;;;;3.40;1.10;;;5.90;99.90;;;;;;1952260;73;21175;-84
2021/12/07 10:41:08;;;;;;;5.92;1.30;;;6.50;99.90;;;;;;1947243;72;21072;-87
2021/12/07 10:43:36;;;;;;;4.83;1.42;;;7.10;99.90;;;;;;1946682;72;21143;-87
2021/12/07 10:46:01;;;;;;;2.30;1.22;;;7.50;99.90;;;;;;1965273;72;21101;-84
2021/12/07 10:48:28;;;;;;;4.33;1.25;;;7.90;99.90;;;;;;1973046;72;21033;-84
2021/12/07 10:50:58;;;;;;;5.85;1.92;;;7.60;99.90;;;;;;1961947;72;21138;-81
2021/12/07 10:53:25;;;;;;;2.02;1.20;;;7.40;99.90;;;;;;1964973;71;21068;-87
2021/12/07 10:55:50;;;;;;;4.47;1.12;;;7.20;99.90;;;;;;1967457;72;21485;-86
2021/12/07 10:58:17;;;;;;;4.35;1.20;;;6.90;99.90;;;;;;1967717;72;21118;-79
2021/12/07 11:00:50;;;;;;;3.75;1.60;;;6.80;99.90;;;;;;1973193;72;21085;-82
2021/12/07 11:03:11;;;;;;;3.45;1.27;;;6.70;99.90;;;;;;1967886;71;21436;-86
2021/12/07 11:05:37;;;;;;;4.55;1.32;;;6.60;99.90;;;;;;1955302;72;21449;-85
2021/12/07 11:08:05;;;;;;;6.05;1.32;;;6.50;99.90;;;;;;1969525;72;21616;-83
2021/12/07 11:10:32;;;;;;;3.95;1.47;;;6.80;99.90;;;;;;1968111;72;21109;-82
2021/12/07 11:13:08;;;;;;;5.03;1.45;;;7.00;99.90;;;;;;1970258;72;21206;-84
2021/12/07 11:15:29;;;;;;;13.48;1.87;;;6.90;99.90;;;;;;1963749;71;21077;-86
2021/12/07 11:17:55;;;;;;;8.78;1.35;;;6.80;99.90;;;;;;2004310;71;21080;-80
2021/12/07 11:20:21;;;;;;;7.53;1.70;;;6.60;99.90;;;;;;1970101;72;21468;-82
2021/12/07 11:22:50;;;;;;;5.60;1.40;;;6.60;99.90;;;;;;1963615;72;21126;-80
2021/12/07 11:25:21;;;;;;;5.03;1.37;;;6.50;99.90;;;;;;1962486;72;21545;-80
2021/12/07 11:30:28;;;;;;;8.65;1.75;;;6.30;99.90;;;;;;1955724;72;21527;-80
2021/12/07 11:32:56;;;;;;;3.55;1.37;;;6.40;99.90;;;;;;1959647;72;21437;-82
2021/12/07 11:35:22;;;;;;;2.45;1.10;;;6.90;99.90;;;;;;1960060;72;21080;-78
2021/12/07 11:37:48;;;;;;;3.83;1.30;;;8.10;99.90;;;;;;1951853;72;21157;-79
2021/12/07 11:40:17;;;;;;;4.20;1.20;;;9.20;99.90;;;;;;1963271;72;21033;-80
2021/12/07 11:42:42;;;;;;;4.67;1.30;;;9.80;99.90;;;;;;1971699;71;21041;-79
2021/12/07 11:45:08;;;;;;;13.03;1.50;;;9.80;99.90;;;;;;1967755;72;21545;-84
2021/12/07 11:47:35;;;;;;;5.28;1.60;;;9.30;99.90;;;;;;1965182;72;21533;-83
2021/12/07 11:50:03;;;;;;;4.70;1.42;;;8.50;99.90;;;;;;1948271;73;21152;-82
2021/12/07 11:52:29;;;;;;;2.25;1.30;;;7.60;99.90;;;;;;1962646;72;21390;-84
2021/12/07 11:54:56;;;;;;;6.33;1.17;;;7.30;99.90;;;;;;1953511;71;21232;-86
2021/12/07 11:57:22;;;;;;;3.55;1.20;;;7.00;99.90;;;;;;1960292;72;21472;-88
2021/12/07 11:59:49;;;;;;;8.63;1.35;;;6.80;99.90;;;;;;1951068;73;21459;-87
2021/12/07 12:02:15;;;;;;;5.62;1.25;;;6.80;99.90;;;;;;1960407;72;21122;-87
2021/12/07 12:04:45;;;;;;;3.20;1.27;;;6.80;99.90;;;;;;1969772;72;21502;-88
2021/12/07 12:07:16;;;;;;;5.83;1.65;;;6.60;99.90;;;;;;1970288;72;21065;-80
2021/12/07 12:09:49;;;;;;;3.55;1.30;;;6.70;99.90;;;;;;1968200;71;21076;-84
2021/12/07 12:12:12;;;;;;;8.27;1.93;;;6.70;99.90;;;;;;1960991;71;21108;-79
2021/12/07 12:14:38;;;;;;;6.65;1.50;;;6.80;99.90;;;;;;1971490;72;21134;-79
2021/12/07 12:17:05;;;;;;;3.27;1.20;;;6.80;99.90;;;;;;1965512;72;21072;-80
2021/12/07 12:19:33;;;;;;;3.92;1.20;;;7.10;99.90;;;;;;1969243;72;21056;-79
2021/12/07 12:21:58;;;;;;;6.15;1.40;;;8.00;99.90;;;;;;1964954;72;21528;-79
2021/12/07 12:24:25;;;;;;;4.47;1.30;;;8.70;99.90;;;;;;1951627;72;21091;-80
2021/12/07 12:26:51;;;;;;;3.60;1.30;;;9.70;99.90;;;;;;1951713;72;21072;-80
2021/12/07 12:29:17;;;;;;;4.28;1.15;;;10.60;99.90;;;;;;1967690;72;21142;-79
2021/12/07 12:31:43;;;;;;;8.18;1.50;;;11.30;99.90;;;;;;1962990;72;21112;-78
2021/12/07 12:34:09;;;;;;;7.30;1.60;;;10.70;99.90;;;;;;1967380;72;21146;-79
2021/12/07 12:36:37;;;;;;;3.72;1.10;;;10.40;99.90;;;;;;1967351;72;21072;-80
2021/12/07 12:39:03;;;;;;;2.98;1.32;;;9.30;99.90;;;;;;1965325;72;21681;-77
2021/12/07 12:41:30;;;;;;;3.80;1.27;;;9.20;99.90;;;;;;1962407;72;21159;-78
2021/12/07 12:43:56;;;;;;;3.75;1.20;;;8.90;99.90;;;;;;1970762;72;21064;-80
2021/12/07 12:46:22;;;;;;;6.67;1.40;;;9.00;99.90;;;;;;1969351;72;21072;-79
2021/12/07 12:48:49;;;;;;;1.70;0.85;;;9.10;99.90;;;;;;1965685;72;21138;-79
2021/12/07 12:51:15;;;;;;;1.65;0.90;;;9.40;99.90;;;;;;1963033;72;21080;-78
2021/12/07 12:53:41;;;;;;;4.70;1.30;;;9.50;99.90;;;;;;1963210;72;21152;-78
2021/12/07 12:56:07;;;;;;;5.10;1.32;;;9.40;99.90;;;;;;1965929;73;21049;-76
2021/12/07 12:58:37;;;;;;;6.03;1.37;;;9.70;99.90;;;;;;1969339;72;21109;-75
2021/12/07 13:01:03;;;;;;;4.72;1.55;;;9.60;99.90;;;;;;1959996;72;21088;-76
2021/12/07 13:03:29;;;;;;;4.80;1.55;;;9.30;99.90;;;;;;1955480;72;21141;-75
2021/12/07 13:05:55;;;;;;;2.52;1.52;;;9.50;99.90;;;;;;1967541;72;21084;-76
2021/12/07 13:08:21;;;;;;;4.92;1.20;;;9.90;99.90;;;;;;1963636;72;21149;-76
2021/12/07 13:10:47;;;;;;;2.70;1.20;;;9.70;99.90;;;;;;1956794;72;21045;-75
2021/12/07 13:13:13;;;;;;;7.58;1.27;;;9.40;99.90;;;;;;1959891;72;21480;-75
2021/12/07 13:15:39;;;;;;;3.70;1.37;;;9.10;99.90;;;;;;1951623;72;21464;-77
2021/12/07 13:18:07;;;;;;;4.53;1.60;;;9.30;99.90;;;;;;1971120;72;21500;-76
2021/12/07 13:20:35;;;;;;;6.05;1.45;;;9.20;99.90;;;;;;1966576;72;21115;-75
2021/12/07 13:23:00;;;;;;;4.08;1.37;;;9.60;99.90;;;;;;1969116;71;21171;-76
2021/12/07 13:25:27;;;;;;;2.77;0.93;;;9.90;99.90;;;;;;1968350;72;21134;-77
2021/12/07 13:27:53;;;;;;;4.35;0.82;;;9.70;99.90;;;;;;1968744;72;21029;-76
2021/12/07 13:30:19;;;;;;;5.62;1.30;;;9.60;99.90;;;;;;1968781;72;21068;-77
2021/12/07 13:32:45;;;;;;;3.20;0.90;;;9.50;99.90;;;;;;1965046;72;21207;-78
2021/12/07 13:35:11;;;;;;;4.95;1.12;;;9.90;99.90;;;;;;1963935;72;21127;-78
2021/12/07 13:37:37;;;;;;;10.48;1.20;;;10.00;99.90;;;;;;1969683;72;21107;-77
2021/12/07 13:40:03;;;;;;;3.02;1.02;;;10.00;99.90;;;;;;1956619;72;21146;-78
2021/12/07 13:42:31;;;;;;;2.52;1.12;;;10.00;99.90;;;;;;1965207;72;21107;-78
2021/12/07 13:44:57;;;;;;;4.92;1.10;;;10.00;99.90;;;;;;1961576;72;21235;-76
2021/12/07 13:47:23;;;;;;;7.80;1.25;;;10.00;99.90;;;;;;1965086;72;21060;-79
2021/12/07 13:49:49;;;;;;;4.92;1.37;;;9.10;99.90;;;;;;1958793;72;21042;-75
2021/12/07 13:52:15;;;;;;;3.92;1.00;;;9.20;99.90;;;;;;1954124;72;21060;-80
2021/12/07 13:54:42;;;;;;;8.38;1.40;;;9.20;99.90;;;;;;1962269;72;21081;-77
2021/12/07 13:57:08;;;;;;;6.37;1.25;;;8.60;99.90;;;;;;1962490;72;21465;-78
2021/12/07 13:59:34;;;;;;;10.82;2.00;;;7.90;99.90;;;;;;1958824;72;21467;-78
2021/12/07 14:02:00;;;;;;;3.40;1.20;;;7.20;99.90;;;;;;1968617;72;21589;-78
2021/12/07 14:04:26;;;;;;;8.18;1.15;;;6.90;99.90;;;;;;1969514;72;21131;-78
2021/12/07 14:06:52;;;;;;;5.67;1.10;;;6.60;99.90;;;;;;1962597;72;21076;-77
2021/12/07 14:09:18;;;;;;;3.45;1.07;;;6.70;99.90;;;;;;1959351;72;21159;-77
2021/12/07 14:11:44;;;;;;;2.37;1.07;;;6.70;99.90;;;;;;1956098;72;21123;-77
2021/12/07 14:14:11;;;;;;;6.50;1.25;;;6.90;99.90;;;;;;1956080;72;21068;-76
2021/12/07 14:16:37;;;;;;;5.67;1.22;;;7.60;99.90;;;;;;1967832;72;21146;-77
2021/12/07 14:19:03;;;;;;;3.62;1.20;;;7.90;99.90;;;;;;1957364;72;21119;-80
2021/12/07 14:21:29;;;;;;;2.08;1.15;;;7.80;99.90;;;;;;2007961;70;21036;-78
2021/12/07 14:24:04;;;;;;;4.67;1.27;;;8.40;99.90;;;;;;1964854;72;22383;-78
2021/12/07 14:26:24;;;;;;;2.08;1.00;;;9.10;99.90;;;;;;1960517;71;21086;-77
2021/12/07 14:28:50;;;;;;;3.62;0.88;;;9.50;99.90;;;;;;1963640;72;21118;-77